createdAt,value
2023-03-31T00:01:04.521Z,23.98
2023-03-31T00:03:34.279Z,22.30
2023-03-31T00:06:02.004Z,21.03
2023-03-31T00:08:35.663Z,18.53
2023-03-31T00:11:07.314Z,18.95
2023-03-31T00:13:35.619Z,19.33
2023-03-31T00:16:06.002Z,17.55
2023-03-31T00:18:34.459Z,17.95
2023-03-31T00:21:24.633Z,18.85
2023-03-31T00:23:57.818Z,17.00
2023-03-31T00:26:26.318Z,16.40
2023-03-31T00:28:54.493Z,17.37
2023-03-31T00:31:22.543Z,20.37
2023-03-31T00:33:50.754Z,22.25
2023-03-31T00:36:21.514Z,22.62
2023-03-31T00:38:49.392Z,22.08
2023-03-31T00:41:16.894Z,24.83
2023-03-31T00:44:02.362Z,21.75
2023-03-31T00:46:43.951Z,25.75
2023-03-31T00:49:16.550Z,23.83
2023-03-31T00:51:44.638Z,23.23
2023-03-31T00:54:12.738Z,19.80
2023-03-31T00:56:42.328Z,22.75
2023-03-31T00:59:12.012Z,21.00
2023-03-31T01:01:42.999Z,17.57
2023-03-31T01:04:12.395Z,20.26
2023-03-31T01:06:46.980Z,22.13
2023-03-31T01:09:17.033Z,19.55
2023-03-31T01:11:46.467Z,20.92
2023-03-31T01:14:14.381Z,24.90
2023-03-31T01:16:42.189Z,25.07
2023-03-31T01:19:17.384Z,25.37
2023-03-31T01:22:16.200Z,22.55
2023-03-31T01:25:08.577Z,22.95
2023-03-31T01:27:54.186Z,16.90
2023-03-31T01:30:31.275Z,17.97
2023-03-31T01:33:32.928Z,18.90
2023-03-31T01:36:19.292Z,21.90
2023-03-31T01:39:05.104Z,19.90
2023-03-31T01:42:05.022Z,20.30
2023-03-31T01:44:53.441Z,19.30
2023-03-31T01:47:31.754Z,18.73
2023-03-31T01:50:08.040Z,18.53
2023-03-31T01:52:45.939Z,15.32
2023-03-31T01:55:20.881Z,17.43
2023-03-31T01:57:52.830Z,15.55
2023-03-31T02:00:26.173Z,14.65
2023-03-31T02:03:01.604Z,14.70
2023-03-31T02:05:43.348Z,14.40
2023-03-31T02:08:14.437Z,13.00
2023-03-31T02:10:42.972Z,12.68
2023-03-31T02:13:11.773Z,12.07
2023-03-31T02:15:46.320Z,13.57
2023-03-31T02:18:17.328Z,12.68
2023-03-31T02:20:47.544Z,12.73
2023-03-31T02:23:17.335Z,11.82
2023-03-31T02:25:51.457Z,12.52
2023-03-31T02:28:21.684Z,12.15
2023-03-31T02:30:53.320Z,13.07
2023-03-31T02:33:21.331Z,12.43
2023-03-31T02:35:48.772Z,14.35
2023-03-31T02:38:16.435Z,14.75
2023-03-31T02:40:44.205Z,13.82
2023-03-31T02:43:11.951Z,13.02
2023-03-31T02:45:45.359Z,13.20
2023-03-31T02:48:26.538Z,13.22
2023-03-31T02:51:23.064Z,12.20
2023-03-31T02:54:20.006Z,14.50
2023-03-31T02:57:03.084Z,15.05
2023-03-31T02:59:45.938Z,13.57
2023-03-31T03:02:47.587Z,12.75
2023-03-31T03:05:41.409Z,11.90
2023-03-31T03:08:29.993Z,12.15
2023-03-31T03:11:11.308Z,12.68
2023-03-31T03:13:51.834Z,12.97
2023-03-31T03:16:42.526Z,13.68
2023-03-31T03:19:10.642Z,13.48
2023-03-31T03:21:38.375Z,14.73
2023-03-31T03:24:06.376Z,13.93
2023-03-31T03:26:35.278Z,15.70
2023-03-31T03:29:02.997Z,15.68
2023-03-31T03:31:30.815Z,15.52
2023-03-31T03:33:58.172Z,16.50
2023-03-31T03:36:26.030Z,15.77
2023-03-31T03:38:53.491Z,15.77
2023-03-31T03:41:20.918Z,15.38
2023-03-31T03:43:48.608Z,17.47
2023-03-31T03:46:16.244Z,18.08
2023-03-31T03:48:43.756Z,17.60
2023-03-31T03:51:11.405Z,18.87
2023-03-31T03:53:38.830Z,21.75
2023-03-31T03:56:06.880Z,22.80
2023-03-31T03:58:35.012Z,22.73
2023-03-31T04:01:02.450Z,32.25
2023-03-31T04:03:31.204Z,43.13
2023-03-31T04:05:58.735Z,26.60
2023-03-31T04:08:26.308Z,21.87
2023-03-31T04:10:53.974Z,20.05
2023-03-31T04:13:21.514Z,19.25
2023-03-31T04:15:49.212Z,20.92
2023-03-31T04:18:23.313Z,23.33
2023-03-31T04:21:04.212Z,21.10
2023-03-31T04:23:33.308Z,15.40
2023-03-31T04:26:01.345Z,20.77
2023-03-31T04:28:34.817Z,16.90
2023-03-31T04:31:04.099Z,17.48
2023-03-31T04:33:34.183Z,17.57
2023-03-31T04:36:06.867Z,20.85
2023-03-31T04:38:34.802Z,18.83
2023-03-31T04:41:02.270Z,19.58
2023-03-31T04:43:29.645Z,17.23
2023-03-31T04:45:57.546Z,19.15
2023-03-31T04:48:25.658Z,17.87
2023-03-31T04:50:53.034Z,19.75
2023-03-31T04:53:20.742Z,18.87
2023-03-31T04:55:49.298Z,16.00
2023-03-31T04:58:16.917Z,18.08
2023-03-31T05:00:44.718Z,19.33
2023-03-31T05:03:12.167Z,16.08
2023-03-31T05:05:39.899Z,16.48
2023-03-31T05:08:07.652Z,19.92
2023-03-31T05:10:35.437Z,20.17
2023-03-31T05:13:03.372Z,19.30
2023-03-31T05:15:32.429Z,22.15
2023-03-31T05:18:00.952Z,20.80
2023-03-31T05:20:28.367Z,20.48
2023-03-31T05:22:56.090Z,24.58
2023-03-31T05:25:23.641Z,23.62
2023-03-31T05:27:51.151Z,20.77
2023-03-31T05:30:18.900Z,21.25
2023-03-31T05:32:46.522Z,23.62
2023-03-31T05:35:14.007Z,24.33
2023-03-31T05:37:41.686Z,21.12
2023-03-31T05:40:09.829Z,21.10
2023-03-31T05:42:37.956Z,19.13
2023-03-31T05:45:09.009Z,19.48
2023-03-31T05:47:37.055Z,18.90
2023-03-31T05:50:07.869Z,19.90
2023-03-31T05:52:36.168Z,18.67
2023-03-31T05:55:04.562Z,22.20
2023-03-31T05:57:32.580Z,28.57
2023-03-31T06:00:01.211Z,31.20
2023-03-31T06:02:28.885Z,29.67
2023-03-31T06:04:56.639Z,21.30
2023-03-31T06:07:25.038Z,18.98
2023-03-31T06:09:52.703Z,16.77
2023-03-31T06:12:21.864Z,15.48
2023-03-31T06:14:49.307Z,13.98
2023-03-31T06:17:16.763Z,13.93
2023-03-31T06:19:44.483Z,13.98
2023-03-31T06:22:12.172Z,13.70
2023-03-31T06:24:39.951Z,16.30
2023-03-31T06:27:07.772Z,15.70
2023-03-31T06:29:35.294Z,17.40
2023-03-31T06:32:05.098Z,17.87
2023-03-31T06:34:32.911Z,15.20
2023-03-31T06:37:01.381Z,17.85
2023-03-31T06:39:28.908Z,14.15
2023-03-31T06:41:57.120Z,14.15
2023-03-31T06:44:25.724Z,12.85
2023-03-31T06:46:53.205Z,16.83
2023-03-31T06:49:21.212Z,12.85
2023-03-31T06:51:48.652Z,13.30
2023-03-31T06:54:16.895Z,27.42
2023-03-31T06:56:45.133Z,28.00
2023-03-31T06:59:12.888Z,14.27
2023-03-31T07:01:42.662Z,11.05
2023-03-31T07:04:11.048Z,9.75
2023-03-31T07:06:38.745Z,10.77
2023-03-31T07:09:07.112Z,11.48
2023-03-31T07:11:34.942Z,9.30
2023-03-31T07:14:02.556Z,9.73
2023-03-31T07:16:31.544Z,10.68
2023-03-31T07:19:04.366Z,13.70
2023-03-31T07:21:31.866Z,14.82
2023-03-31T07:23:59.572Z,10.70
2023-03-31T07:26:27.784Z,9.07
2023-03-31T07:28:57.362Z,8.23
2023-03-31T07:31:25.035Z,8.10
2023-03-31T07:33:52.838Z,9.50
2023-03-31T07:36:20.899Z,7.15
2023-03-31T07:38:49.728Z,9.98
2023-03-31T07:41:19.582Z,7.72
2023-03-31T07:43:47.783Z,8.25
2023-03-31T07:46:18.141Z,6.25
2023-03-31T07:48:47.055Z,10.35
2023-03-31T07:51:16.924Z,10.02
2023-03-31T07:53:46.409Z,8.67
2023-03-31T07:56:14.199Z,7.95
2023-03-31T07:58:41.905Z,8.20
2023-03-31T08:01:09.780Z,8.88
2023-03-31T08:03:38.947Z,9.70
2023-03-31T08:06:06.593Z,7.85
2023-03-31T08:08:34.210Z,9.07
2023-03-31T08:11:01.984Z,8.43
2023-03-31T08:13:29.674Z,9.57
2023-03-31T08:15:57.345Z,9.73
2023-03-31T08:18:25.309Z,8.07
2023-03-31T08:33:14.269Z,7.25
2023-03-31T08:35:41.787Z,7.50
2023-03-31T08:38:12.250Z,6.18
2023-03-31T08:40:43.713Z,5.93
